Time;durP1;ratioP1;P1;durP2;ratioP2;P2;SDS_P1;SDS_P2;PMS_P1;PMS_P2;Temp;Humidity;BMP_temperature;BMP_pressure;BME280_temperature;BME280_humidity;BME280_pressure;Samples;Min_cycle;Max_cycle;Signal;HPM_P1;HPM_P2
2022/07/28 00:01:45;;;;;;;4.53;1.30;;;;;;;-145.18;100.00;46646.72;4989844;28;20077;-74
2022/07/28 00:04:10;;;;;;;6.30;1.40;;;;;;;-145.18;100.00;46648.69;4973840;28;20410;-75
2022/07/28 00:06:35;;;;;;;3.03;1.13;;;;;;;-145.18;100.00;46650.63;4989954;28;20189;-75
2022/07/28 00:09:01;;;;;;;8.17;1.20;;;;;;;-145.18;100.00;46656.50;4990844;28;20034;-74
2022/07/28 00:11:26;;;;;;;4.77;1.23;;;;;;;-145.18;100.00;46656.50;4990481;28;20437;-75
2022/07/28 00:13:51;;;;;;;3.60;1.20;;;;;;;-145.18;100.00;46660.41;4990743;28;20189;-74
2022/07/28 00:16:17;;;;;;;5.87;1.57;;;;;;;-145.18;100.00;46666.25;4990513;28;20510;-74
2022/07/28 00:18:42;;;;;;;5.67;1.10;;;;;;;-145.18;100.00;46666.25;4990400;28;20439;-74
2022/07/28 00:21:08;;;;;;;5.53;1.70;;;;;;;-145.18;100.00;46668.22;5002183;28;20040;-74
2022/07/28 00:23:33;;;;;;;7.13;1.23;;;;;;;-145.18;100.00;46664.31;5009990;28;20069;-74
2022/07/28 00:25:59;;;;;;;8.20;1.60;;;;;;;-145.18;100.00;46666.25;5009849;28;20520;-75
2022/07/28 00:28:24;;;;;;;7.97;1.30;;;;;;;-145.18;100.00;46668.22;5009830;28;20045;-74
2022/07/28 00:30:49;;;;;;;6.23;1.83;;;;;;;-145.18;100.00;46672.13;5009468;28;20030;-74
2022/07/28 00:33:15;;;;;;;6.20;1.63;;;;;;;-145.18;100.00;46677.97;4991565;28;20065;-73
2022/07/28 00:35:40;;;;;;;4.60;1.57;;;;;;;-145.18;100.00;46676.03;4994306;28;20145;-75
2022/07/28 00:38:05;;;;;;;4.67;1.10;;;;;;;-145.18;100.00;46683.84;4993941;28;20042;-75
2022/07/28 00:43:15;;;;;;;3.17;1.27;;;;;;;-145.18;100.00;46689.69;4994122;28;20077;-75
2022/07/28 00:45:42;;;;;;;4.70;1.17;;;;;;;-145.18;100.00;46687.75;4994056;28;20125;-74
2022/07/28 00:48:08;;;;;;;4.00;1.53;;;;;;;-145.18;100.00;46679.94;4994112;28;20042;-75
2022/07/28 00:50:34;;;;;;;4.87;1.17;;;;;;;-145.18;100.00;46689.69;4993753;28;20045;-74
2022/07/28 00:52:59;;;;;;;8.40;1.30;;;;;;;-145.18;100.00;46681.88;4993715;28;20122;-74
2022/07/28 00:55:25;;;;;;;5.90;1.63;;;;;;;-145.18;100.00;46685.78;4994227;28;20035;-74
2022/07/28 00:57:50;;;;;;;7.70;1.80;;;;;;;-145.18;100.00;46687.75;4993311;28;20049;-74
2022/07/28 01:00:16;;;;;;;3.70;1.30;;;;;;;-145.18;100.00;46681.88;4993866;28;20045;-74
2022/07/28 01:02:42;;;;;;;6.40;1.40;;;;;;;-145.18;100.00;46685.78;4993276;28;20034;-74
2022/07/28 01:05:08;;;;;;;4.23;1.63;;;;;;;-145.18;100.00;46683.84;4993537;28;20054;-74
2022/07/28 01:07:41;;;;;;;8.00;1.70;;;;;;;-145.18;100.00;46679.94;4993426;28;20038;-74
2022/07/28 01:10:31;;;;;;;6.40;1.50;;;;;;;-145.18;100.00;46679.94;4994016;28;20030;-75
2022/07/28 01:13:15;;;;;;;4.80;1.50;;;;;;;-145.18;100.00;46681.88;4993265;28;20037;-75
2022/07/28 01:15:47;;;;;;;4.30;1.47;;;;;;;-145.18;100.00;46679.94;4993696;28;20038;-73
2022/07/28 01:18:35;;;;;;;4.27;1.27;;;;;;;-145.18;100.00;46677.97;4993413;28;20117;-73
2022/07/28 01:21:24;;;;;;;7.80;1.60;;;;;;;-145.18;100.00;46677.97;4993137;28;20038;-75
2022/07/28 01:24:12;;;;;;;4.97;1.30;;;;;;;-145.18;100.00;46677.97;4975851;28;20406;-75
2022/07/28 01:26:41;;;;;;;4.77;1.57;;;;;;;-145.18;100.00;46677.97;4992965;28;20533;-73
2022/07/28 01:29:13;;;;;;;8.97;1.80;;;;;;;-145.18;100.00;46670.16;4993774;28;20073;-75
2022/07/28 01:31:42;;;;;;;6.17;1.37;;;;;;;-145.18;100.00;46676.03;4993285;28;20107;-75
2022/07/28 01:34:16;;;;;;;5.93;1.27;;;;;;;-145.18;100.00;46676.03;4993686;28;20045;-75
2022/07/28 01:36:48;;;;;;;8.77;1.60;;;;;;;-145.18;100.00;46674.06;4993311;28;20027;-75
2022/07/28 01:39:16;;;;;;;3.67;1.40;;;;;;;-145.18;100.00;46670.16;4993687;28;20033;-75
2022/07/28 01:41:44;;;;;;;4.83;1.20;;;;;;;-145.18;100.00;46664.31;4993170;28;20022;-76
2022/07/28 01:44:15;;;;;;;3.20;1.53;;;;;;;-145.18;100.00;46670.16;4993374;28;20076;-75
2022/07/28 01:46:43;;;;;;;5.33;1.43;;;;;;;-145.18;100.00;46672.13;4993054;28;20061;-75
2022/07/28 01:49:11;;;;;;;4.97;1.33;;;;;;;-145.18;100.00;46672.13;4993384;28;20061;-75
2022/07/28 01:51:37;;;;;;;8.20;1.50;;;;;;;-145.18;100.00;46672.13;4993024;28;20042;-72
2022/07/28 01:54:05;;;;;;;4.57;1.63;;;;;;;-145.18;100.00;46672.13;4992822;28;20030;-73
2022/07/28 01:56:33;;;;;;;3.53;1.30;;;;;;;-145.18;100.00;46668.22;4992987;28;20506;-73
2022/07/28 01:59:04;;;;;;;4.17;1.70;;;;;;;-145.18;100.00;46666.25;4992616;28;20118;-73
2022/07/28 02:04:00;;;;;;;5.93;1.90;;;;;;;-145.18;100.00;46670.16;4686035;23;20058;-72
2022/07/28 02:06:26;;;;;;;4.47;1.63;;;;;;;-145.18;100.00;46670.16;5010935;28;20073;-72
2022/07/28 02:08:54;;;;;;;9.63;1.60;;;;;;;-145.18;100.00;46672.13;5011918;28;20064;-73
2022/07/28 02:14:09;;;;;;;4.30;1.60;;;;;;;-145.18;100.00;46672.13;5012767;28;20540;-75
2022/07/28 02:16:35;;;;;;;7.10;1.47;;;;;;;-145.18;100.00;46674.06;5013096;28;20038;-73
2022/07/28 02:19:01;;;;;;;4.13;1.57;;;;;;;-145.18;100.00;46677.97;5019697;28;20561;-73
2022/07/28 02:21:30;;;;;;;6.70;1.63;;;;;;;-145.18;100.00;46674.06;5032520;28;20061;-73
2022/07/28 02:23:57;;;;;;;5.20;1.50;;;;;;;-145.18;100.00;46674.06;5032084;28;20026;-73
2022/07/28 02:26:27;;;;;;;3.90;1.60;;;;;;;-145.18;100.00;46676.03;5032105;28;20069;-73
2022/07/28 02:28:55;;;;;;;4.63;1.80;;;;;;;-145.18;100.00;46674.06;5031720;28;20037;-73
2022/07/28 02:31:30;;;;;;;7.10;2.00;;;;;;;-145.18;100.00;46677.97;5017373;28;20540;-73
2022/07/28 02:33:59;;;;;;;9.82;1.77;;;;;;;-145.18;100.00;46677.97;5012139;28;20088;-74
2022/07/28 02:36:27;;;;;;;6.73;1.70;;;;;;;-145.18;100.00;46674.06;5012502;28;20394;-76
2022/07/28 02:38:55;;;;;;;6.50;1.37;;;;;;;-145.18;100.00;46676.03;5011536;28;20021;-73
2022/07/28 02:41:25;;;;;;;4.10;1.40;;;;;;;-145.18;100.00;46674.06;5012224;28;20022;-73
2022/07/28 02:43:54;;;;;;;4.97;1.60;;;;;;;-145.18;100.00;46672.13;5011565;28;20030;-73
2022/07/28 02:46:25;;;;;;;6.77;1.53;;;;;;;-145.18;100.00;46670.16;4995176;28;20495;-73
2022/07/28 02:48:59;;;;;;;9.67;1.70;;;;;;;-145.18;100.00;46670.16;5011485;28;20026;-73
2022/07/28 02:51:28;;;;;;;7.53;2.00;;;;;;;-145.18;100.00;46674.06;5011932;28;20397;-73
2022/07/28 02:53:54;;;;;;;6.00;1.60;;;;;;;-145.18;100.00;46672.13;5011567;28;20421;-74
2022/07/28 02:56:21;;;;;;;7.00;1.70;;;;;;;-145.18;100.00;46670.16;5011458;28;20083;-73
2022/07/28 02:58:47;;;;;;;5.33;1.60;;;;;;;-145.18;100.00;46672.13;5011369;28;20034;-73
2022/07/28 03:01:16;;;;;;;7.43;1.50;;;;;;;-145.18;100.00;46674.06;5011229;28;20033;-73
2022/07/28 03:03:41;;;;;;;4.30;1.63;;;;;;;-145.18;100.00;46674.06;5011244;28;20050;-73
2022/07/28 03:06:07;;;;;;;3.43;1.50;;;;;;;-145.18;100.00;46676.03;5011621;28;20479;-73
2022/07/28 03:08:32;;;;;;;4.83;1.70;;;;;;;-145.18;100.00;46672.13;5011330;28;20030;-73
2022/07/28 03:11:08;;;;;;;7.43;1.70;;;;;;;-145.18;100.00;46676.03;5011548;28;20034;-73
2022/07/28 03:13:34;;;;;;;9.23;1.70;;;;;;;-145.18;100.00;46664.31;4993486;28;20030;-73
2022/07/28 03:15:59;;;;;;;3.67;1.60;;;;;;;-145.18;100.00;46664.31;5011471;28;20052;-73
2022/07/28 03:18:27;;;;;;;4.07;1.80;;;;;;;-145.18;100.00;46670.16;4993396;28;20398;-73
2022/07/28 03:20:53;;;;;;;8.30;1.83;;;;;;;-145.18;100.00;46668.22;5010472;28;20034;-74
2022/07/28 03:23:22;;;;;;;4.63;1.60;;;;;;;-145.18;100.00;46662.34;5010206;28;20529;-73
2022/07/28 03:25:52;;;;;;;5.73;1.80;;;;;;;-145.18;100.00;46660.41;5011701;28;20698;-74
2022/07/28 03:28:20;;;;;;;4.63;1.90;;;;;;;-145.18;100.00;46664.31;5010852;28;20026;-73
2022/07/28 03:31:12;;;;;;;8.87;1.83;;;;;;;-145.18;100.00;46662.34;5011656;28;20039;-74
2022/07/28 03:33:38;;;;;;;6.57;2.07;;;;;;;-145.18;100.00;46660.41;5006778;28;20590;-74
2022/07/28 03:36:10;;;;;;;5.67;2.20;;;;;;;-145.18;100.00;46662.34;5011172;28;20122;-73
2022/07/28 03:38:42;;;;;;;10.13;1.83;;;;;;;-145.18;100.00;46662.34;5011032;28;20506;-73
2022/07/28 03:41:10;;;;;;;6.47;2.53;;;;;;;-145.18;100.00;46666.25;5011122;28;20030;-73
2022/07/28 03:43:36;;;;;;;3.33;1.90;;;;;;;-145.18;100.00;46662.34;5010673;28;20038;-73
2022/07/28 03:46:02;;;;;;;4.33;2.40;;;;;;;-145.18;100.00;46662.34;5011084;28;20042;-73
2022/07/28 03:48:31;;;;;;;7.83;2.13;;;;;;;-145.18;100.00;46652.59;5010876;28;20030;-73
2022/07/28 03:50:57;;;;;;;10.70;2.10;;;;;;;-145.18;100.00;46660.41;5008456;28;20042;-72
2022/07/28 03:53:25;;;;;;;3.70;1.90;;;;;;;-145.18;100.00;46658.44;5001273;28;20041;-73
2022/07/28 03:55:51;;;;;;;5.30;2.20;;;;;;;-145.18;100.00;46652.59;4999326;28;20034;-73
2022/07/28 03:58:24;;;;;;;8.83;2.10;;;;;;;-145.18;100.00;46654.53;5000390;28;20461;-73
2022/07/28 04:00:50;;;;;;;5.93;2.10;;;;;;;-145.18;100.00;46650.63;5001279;28;20403;-73
2022/07/28 04:03:17;;;;;;;3.27;1.70;;;;;;;-145.18;100.00;46648.69;5004645;28;20587;-73
2022/07/28 04:05:43;;;;;;;10.40;2.50;;;;;;;-145.18;100.00;46652.59;5010789;28;20042;-73
2022/07/28 04:08:08;;;;;;;6.60;2.33;;;;;;;-145.18;100.00;46652.59;5010391;28;20588;-73
2022/07/28 04:10:34;;;;;;;7.73;2.20;;;;;;;-145.18;100.00;46648.69;5010838;28;20149;-74
2022/07/28 04:12:59;;;;;;;8.57;2.10;;;;;;;-145.18;100.00;46646.72;5010013;28;20058;-73
2022/07/28 04:15:26;;;;;;;5.03;2.07;;;;;;;-145.18;100.00;46648.69;5010593;28;20034;-73
2022/07/28 04:17:53;;;;;;;3.27;1.90;;;;;;;-145.18;100.00;46654.53;5010331;28;20455;-73
2022/07/28 04:20:20;;;;;;;4.37;1.73;;;;;;;-145.18;100.00;46648.69;5010566;28;20026;-73
2022/07/28 04:22:46;;;;;;;5.97;2.50;;;;;;;-145.18;100.00;46648.69;5009894;28;20080;-73
2022/07/28 04:25:12;;;;;;;7.17;2.20;;;;;;;-145.18;100.00;46648.69;5009832;28;20034;-73
2022/07/28 04:27:39;;;;;;;7.23;2.27;;;;;;;-145.18;100.00;46648.69;5009997;28;20030;-73
2022/07/28 04:30:07;;;;;;;4.73;2.20;;;;;;;-145.18;100.00;46646.72;5009750;28;20030;-73
2022/07/28 04:32:33;;;;;;;5.03;2.17;;;;;;;-145.18;100.00;46652.59;5009240;28;20034;-73
2022/07/28 04:34:58;;;;;;;7.03;2.10;;;;;;;-145.18;100.00;46652.59;5009999;28;20037;-73
2022/07/28 04:37:24;;;;;;;11.27;2.93;;;;;;;-145.18;100.00;46650.63;5009985;28;20030;-73
2022/07/28 04:39:49;;;;;;;9.57;2.30;;;;;;;-145.18;100.00;46648.69;5009588;28;20041;-73
2022/07/28 04:42:17;;;;;;;5.97;2.93;;;;;;;-145.18;100.00;46648.69;5008631;28;20041;-74
2022/07/28 04:44:43;;;;;;;5.33;2.07;;;;;;;-145.18;100.00;46650.63;5010616;28;20034;-73
2022/07/28 04:47:08;;;;;;;4.63;2.10;;;;;;;-145.18;100.00;46648.69;5010211;28;20038;-73
2022/07/28 04:49:34;;;;;;;10.63;2.90;;;;;;;-145.18;100.00;46652.59;5010375;28;20042;-73
2022/07/28 04:51:59;;;;;;;7.00;2.47;;;;;;;-145.18;100.00;46646.72;5010424;28;20034;-74
2022/07/28 04:54:25;;;;;;;6.23;2.10;;;;;;;-145.18;100.00;46650.63;5009844;28;20116;-73
2022/07/28 04:56:51;;;;;;;8.80;2.33;;;;;;;-145.18;100.00;46648.69;5009593;28;20042;-73
2022/07/28 04:59:17;;;;;;;6.53;2.10;;;;;;;-145.18;100.00;46646.72;5009954;28;20041;-73
2022/07/28 05:01:43;;;;;;;8.10;2.00;;;;;;;-145.18;100.00;46646.72;5010392;28;20038;-73
2022/07/28 05:04:08;;;;;;;9.40;2.50;;;;;;;-145.18;100.00;46648.69;5009650;28;20061;-73
2022/07/28 05:06:34;;;;;;;7.77;2.13;;;;;;;-145.18;100.00;46648.69;5010202;28;20056;-72
2022/07/28 05:08:59;;;;;;;9.27;1.90;;;;;;;-145.18;100.00;46652.59;5009523;28;20041;-73
2022/07/28 05:11:25;;;;;;;5.17;2.30;;;;;;;-145.18;100.00;46648.69;5002689;28;20474;-73
2022/07/28 05:13:50;;;;;;;3.87;1.67;;;;;;;-145.18;100.00;46652.59;4999514;28;20114;-73
2022/07/28 05:16:16;;;;;;;8.87;2.30;;;;;;;-145.18;100.00;46650.63;4993656;28;20525;-73
2022/07/28 05:18:41;;;;;;;5.27;2.20;;;;;;;-145.18;100.00;46652.59;4991027;28;20102;-73
2022/07/28 05:21:07;;;;;;;4.97;2.10;;;;;;;-145.18;100.00;46652.59;4998027;28;20120;-73
2022/07/28 05:23:32;;;;;;;9.83;2.17;;;;;;;-145.18;100.00;46652.59;5013113;28;20068;-72
2022/07/28 05:25:58;;;;;;;5.43;2.13;;;;;;;-145.18;100.00;46652.59;5012910;28;20100;-72
2022/07/28 05:28:23;;;;;;;7.63;1.83;;;;;;;-145.18;100.00;46650.63;5010815;28;20713;-72
2022/07/28 05:30:48;;;;;;;5.03;2.23;;;;;;;-145.18;100.00;46648.69;5009427;28;20034;-72
2022/07/28 05:33:15;;;;;;;6.57;2.70;;;;;;;-145.18;100.00;46654.53;5012054;28;20406;-72
2022/07/28 05:35:40;;;;;;;8.10;2.70;;;;;;;-145.18;100.00;46644.78;5011187;28;20034;-73
2022/07/28 05:38:06;;;;;;;5.23;1.93;;;;;;;-145.18;100.00;46646.72;5009214;28;20446;-72
2022/07/28 05:40:32;;;;;;;7.63;2.70;;;;;;;-145.18;100.00;46650.63;5005718;28;20034;-72
2022/07/28 05:42:57;;;;;;;7.07;2.10;;;;;;;-145.18;100.00;46646.72;5001576;28;20022;-72
2022/07/28 05:45:22;;;;;;;6.27;2.30;;;;;;;-145.18;100.00;46648.69;5013025;28;20029;-73
2022/07/28 05:47:51;;;;;;;6.37;2.03;;;;;;;-145.18;100.00;46652.59;5009707;28;20038;-72
2022/07/28 05:50:19;;;;;;;8.30;2.30;;;;;;;-145.18;100.00;46652.59;5012360;28;20029;-72
2022/07/28 05:52:45;;;;;;;7.47;1.90;;;;;;;-145.18;100.00;46648.69;5012683;28;20099;-73
2022/07/28 05:55:11;;;;;;;10.13;2.93;;;;;;;-145.18;100.00;46650.63;5012811;28;20490;-73
2022/07/28 05:57:38;;;;;;;6.67;1.90;;;;;;;-145.18;100.00;46648.69;4995225;28;20037;-72
2022/07/28 06:00:09;;;;;;;8.73;2.13;;;;;;;-145.18;100.00;46648.69;5012376;28;20562;-73
2022/07/28 06:02:34;;;;;;;10.50;1.90;;;;;;;-145.18;100.00;46656.50;5011948;28;20557;-72
2022/07/28 06:05:00;;;;;;;6.67;2.30;;;;;;;-145.18;100.00;46656.50;5012865;28;20034;-73
2022/07/28 06:07:25;;;;;;;5.37;1.70;;;;;;;-145.18;100.00;46658.44;5012622;28;20541;-73
2022/07/28 06:09:50;;;;;;;4.93;1.50;;;;;;;-145.18;100.00;46660.41;5012604;28;20541;-73
2022/07/28 06:12:16;;;;;;;7.73;2.10;;;;;;;-145.18;100.00;46660.41;5012289;28;20485;-72
2022/07/28 06:14:41;;;;;;;8.87;1.47;;;;;;;-145.18;100.00;46656.50;5012377;28;20030;-72
2022/07/28 06:17:07;;;;;;;4.27;1.77;;;;;;;-145.18;100.00;46656.50;4998101;28;20042;-72
2022/07/28 06:19:32;;;;;;;7.10;2.13;;;;;;;-145.18;100.00;46656.50;5010491;28;20033;-73
2022/07/28 06:21:57;;;;;;;9.00;1.83;;;;;;;-145.18;100.00;46656.50;5016112;28;20057;-73
2022/07/28 06:24:23;;;;;;;5.53;1.80;;;;;;;-145.18;100.00;46662.34;5017066;28;20061;-73
2022/07/28 06:26:48;;;;;;;7.27;1.70;;;;;;;-145.18;100.00;46652.59;4993653;28;20045;-73
2022/07/28 06:29:13;;;;;;;7.30;1.90;;;;;;;-145.18;100.00;46660.41;5011468;28;20455;-72
2022/07/28 06:31:39;;;;;;;5.30;1.50;;;;;;;-145.18;100.00;46656.50;4993852;28;20033;-72
2022/07/28 06:34:04;;;;;;;5.67;1.67;;;;;;;-145.18;100.00;46658.44;5011597;28;20092;-72
2022/07/28 06:36:30;;;;;;;10.13;1.77;;;;;;;-145.18;100.00;46656.50;5012470;28;20479;-73
2022/07/28 06:38:55;;;;;;;5.73;1.60;;;;;;;-145.18;100.00;46662.34;5011525;28;20057;-73
2022/07/28 06:41:21;;;;;;;9.60;1.87;;;;;;;-145.18;100.00;46656.50;5012071;28;20030;-72
2022/07/28 06:43:46;;;;;;;7.53;1.70;;;;;;;-145.18;100.00;46654.53;5011907;28;20030;-73
2022/07/28 06:46:17;;;;;;;8.90;1.47;;;;;;;-145.18;100.00;46660.41;5011657;28;20037;-73
2022/07/28 06:48:44;;;;;;;11.67;1.87;;;;;;;-145.18;100.00;46662.34;5011517;28;20034;-72
2022/07/28 06:51:10;;;;;;;6.47;1.67;;;;;;;-145.18;100.00;46658.44;5011581;28;20034;-72
2022/07/28 06:53:35;;;;;;;7.97;1.63;;;;;;;-145.18;100.00;46658.44;5011610;28;20040;-72
2022/07/28 06:56:02;;;;;;;12.43;1.70;;;;;;;-145.18;100.00;46652.59;5012068;28;20104;-73
2022/07/28 06:58:27;;;;;;;6.83;1.47;;;;;;;-145.18;100.00;46652.59;4993781;28;20084;-73
2022/07/28 07:00:53;;;;;;;4.77;1.53;;;;;;;-145.18;100.00;46650.63;5023730;28;20068;-72
2022/07/28 07:03:18;;;;;;;6.50;1.27;;;;;;;-145.18;100.00;46625.22;5030699;28;20046;-72
2022/07/28 07:05:44;;;;;;;6.80;1.47;;;;;;;-145.18;100.00;46623.28;5031410;28;20057;-72
2022/07/28 07:08:09;;;;;;;7.17;1.27;;;;;;;-145.18;100.00;46578.34;5030825;28;20073;-72
2022/07/28 07:10:35;;;;;;;11.20;1.40;;;;;;;-145.18;100.00;46558.81;5031256;28;20029;-72
2022/07/28 07:13:00;;;;;;;7.27;1.20;;;;;;;-145.18;100.00;46543.19;5030901;28;20061;-73
2022/07/28 07:15:25;;;;;;;4.93;1.50;;;;;;;-145.18;100.00;46535.38;5026829;28;20040;-72
2022/07/28 07:17:52;;;;;;;7.93;1.50;;;;;;;-145.18;100.00;46539.28;5010572;28;20122;-72
2022/07/28 07:20:18;;;;;;;6.83;2.00;;;;;;;-145.18;100.00;46531.47;5011112;28;20037;-72
2022/07/28 07:22:45;;;;;;;5.20;1.10;;;;;;;-145.18;100.00;46533.44;5023204;28;20094;-73
2022/07/28 07:25:17;;;;;;;7.97;1.60;;;;;;;-145.18;100.00;46529.53;5030682;28;20037;-72
2022/07/28 07:27:42;;;;;;;4.93;1.47;;;;;;;-145.18;100.00;46535.38;5030866;28;20627;-72
2022/07/28 07:30:09;;;;;;;5.57;1.30;;;;;;;-145.18;100.00;46539.28;5030740;28;20045;-72
2022/07/28 07:32:34;;;;;;;5.07;2.03;;;;;;;-145.18;100.00;46539.28;5031077;28;20529;-72
2022/07/28 07:35:00;;;;;;;5.63;1.43;;;;;;;-145.18;100.00;46537.34;5030147;28;20040;-72
2022/07/28 07:37:25;;;;;;;3.97;1.00;;;;;;;-145.18;100.00;46549.06;5030348;28;20040;-72
2022/07/28 07:39:51;;;;;;;4.97;1.63;;;;;;;-145.18;100.00;46547.09;5010224;28;20099;-72
2022/07/28 07:42:16;;;;;;;6.77;1.50;;;;;;;-145.18;100.00;46558.81;5010461;28;20096;-72
2022/07/28 07:44:42;;;;;;;7.97;1.53;;;;;;;-145.18;100.00;46562.72;5010481;28;20029;-72
2022/07/28 07:47:10;;;;;;;8.13;2.10;;;;;;;-145.18;100.00;46552.97;5010610;28;20048;-72
2022/07/28 07:49:38;;;;;;;5.80;1.30;;;;;;;-145.18;100.00;46552.97;5010799;28;20037;-72
2022/07/28 07:52:04;;;;;;;9.33;1.47;;;;;;;-145.18;100.00;46562.72;5010795;28;20040;-72
2022/07/28 07:54:29;;;;;;;5.00;1.20;;;;;;;-145.18;100.00;46574.44;5010416;28;20038;-72
2022/07/28 07:56:55;;;;;;;7.10;1.30;;;;;;;-145.18;100.00;46574.44;4992941;28;20030;-72
2022/07/28 07:59:20;;;;;;;6.00;0.90;;;;;;;-145.18;100.00;46609.59;4992575;28;20478;-72
2022/07/28 08:01:49;;;;;;;8.17;1.47;;;;;;;-145.18;100.00;46599.84;5010683;28;20037;-74
2022/07/28 08:04:15;;;;;;;3.70;1.10;;;;;;;-145.18;100.00;46588.13;5009886;28;20140;-74
2022/07/28 08:06:41;;;;;;;6.77;1.30;;;;;;;-145.18;100.00;46613.50;5010716;28;20037;-74
2022/07/28 08:09:06;;;;;;;3.73;1.23;;;;;;;-145.18;100.00;46617.41;5008534;28;20498;-74
2022/07/28 08:11:31;;;;;;;9.57;1.40;;;;;;;-145.18;100.00;46635.00;5010764;28;20069;-74
2022/07/28 08:13:57;;;;;;;3.53;1.10;;;;;;;-145.18;100.00;46633.06;5008832;28;20038;-75
2022/07/28 08:16:22;;;;;;;6.47;0.90;;;;;;;-145.18;100.00;46633.06;4999763;28;20133;-74
2022/07/28 08:18:48;;;;;;;3.53;1.10;;;;;;;-145.18;100.00;46619.38;5009875;28;20113;-74
2022/07/28 08:21:14;;;;;;;4.47;0.83;;;;;;;-145.18;100.00;46693.59;5010120;28;20107;-74
2022/07/28 08:23:40;;;;;;;2.80;1.00;;;;;;;-145.18;100.00;46717.03;5010091;28;20475;-74
2022/07/28 08:26:06;;;;;;;5.47;1.07;;;;;;;-145.18;100.00;47027.63;5010193;28;20092;-74
2022/07/28 08:28:32;;;;;;;5.13;1.10;;;;;;;-145.18;100.00;47176.09;5009871;28;20038;-74
2022/07/28 08:30:57;;;;;;;4.50;1.30;;;;;;;-145.18;100.00;47258.16;5010033;28;20057;-74
2022/07/28 08:33:22;;;;;;;4.97;1.33;;;;;;;-145.18;100.00;47148.75;5009311;28;20121;-74
2022/07/28 08:35:48;;;;;;;4.60;1.17;;;;;;;-145.18;100.00;47219.09;5010238;28;20038;-74
2022/07/28 08:38:14;;;;;;;5.93;1.40;;;;;;;-145.18;100.00;47203.47;5009471;28;20048;-74
2022/07/28 08:40:41;;;;;;;5.37;1.27;;;;;;;-145.18;100.00;47213.22;5010258;28;20068;-74
2022/07/28 08:43:06;;;;;;;5.23;1.00;;;;;;;-145.18;100.00;47228.84;5007086;28;20048;-74
2022/07/28 08:45:33;;;;;;;3.70;1.13;;;;;;;-145.18;100.00;47234.72;5010315;28;20034;-74
2022/07/28 08:47:59;;;;;;;2.33;1.10;;;;;;;-145.18;100.00;47180.03;4992090;28;20464;-74
2022/07/28 08:50:26;;;;;;;4.37;1.10;;;;;;;-145.18;100.00;47205.41;5009883;28;20034;-74
2022/07/28 08:52:52;;;;;;;6.17;1.70;;;;;;;-145.18;100.00;47236.66;5008646;28;20380;-74
2022/07/28 08:55:23;;;;;;;5.13;1.30;;;;;;;-145.18;100.00;47154.63;5012711;28;20026;-74
2022/07/28 08:57:49;;;;;;;4.67;1.43;;;;;;;-145.18;100.00;47142.91;5014118;28;20038;-73
2022/07/28 09:00:14;;;;;;;6.33;1.57;;;;;;;-145.18;100.00;47137.03;5013647;28;20134;-73
2022/07/28 09:02:46;;;;;;;4.07;0.80;;;;;;;-145.18;100.00;47135.09;5013743;28;20109;-73
2022/07/28 09:05:11;;;;;;;4.93;1.23;;;;;;;-145.18;100.00;47125.31;5012800;28;20559;-73
2022/07/28 09:07:40;;;;;;;4.13;1.10;;;;;;;-145.18;100.00;47142.91;5013684;28;20038;-75
2022/07/28 09:10:06;;;;;;;4.03;1.10;;;;;;;-145.18;100.00;47146.81;5013222;28;20490;-74
2022/07/28 09:12:33;;;;;;;4.70;1.10;;;;;;;-145.18;100.00;47148.75;5013825;28;20044;-74
2022/07/28 09:15:02;;;;;;;4.20;1.17;;;;;;;-145.18;100.00;47131.19;5012553;28;20113;-74
2022/07/28 09:17:27;;;;;;;4.07;1.17;;;;;;;-145.18;100.00;47146.81;5013373;28;20021;-74
2022/07/28 09:19:53;;;;;;;3.90;1.00;;;;;;;-145.18;100.00;47117.50;5013194;28;20092;-74
2022/07/28 09:22:18;;;;;;;3.90;1.23;;;;;;;-145.18;100.00;47121.41;5013388;28;20038;-74
2022/07/28 09:24:44;;;;;;;5.87;1.13;;;;;;;-145.18;100.00;47121.41;5013039;28;20138;-74
2022/07/28 09:27:11;;;;;;;3.37;1.20;;;;;;;-145.18;100.00;47096.00;5012826;28;20045;-74
2022/07/28 09:29:40;;;;;;;1.73;0.93;;;;;;;-145.18;100.00;47117.50;5012938;28;20034;-72
2022/07/28 09:32:07;;;;;;;4.03;1.40;;;;;;;-145.18;100.00;47086.25;5013421;28;20150;-72
2022/07/28 09:34:46;;;;;;;1.67;1.10;;;;;;;-145.18;100.00;47090.16;5013040;28;20033;-75
2022/07/28 09:37:20;;;;;;;2.93;1.20;;;;;;;-145.18;100.00;47107.72;5012955;28;20053;-75
2022/07/28 09:39:47;;;;;;;6.10;1.10;;;;;;;-145.18;100.00;47115.56;5012671;28;20482;-75
2022/07/28 09:42:12;;;;;;;5.80;1.23;;;;;;;-145.18;100.00;47086.25;5012942;28;20041;-74
2022/07/28 09:44:38;;;;;;;5.40;1.20;;;;;;;-145.18;100.00;47090.16;5012892;28;20049;-75
2022/07/28 09:47:23;;;;;;;6.43;1.50;;;;;;;-145.18;100.00;47080.38;5012509;28;20037;-75
2022/07/28 09:49:50;;;;;;;7.63;1.10;;;;;;;-145.18;100.00;47082.34;5012621;28;20026;-75
2022/07/28 09:52:35;;;;;;;5.53;1.27;;;;;;;-145.18;100.00;47074.53;5012541;28;20041;-75
2022/07/28 09:55:09;;;;;;;4.43;1.00;;;;;;;-145.18;100.00;47066.72;5011479;28;20041;-74
2022/07/28 09:57:37;;;;;;;6.03;1.43;;;;;;;-145.18;100.00;47064.75;5012922;28;20490;-74
2022/07/28 10:00:10;;;;;;;5.13;1.27;;;;;;;-145.18;100.00;47045.22;5012099;28;20050;-74
2022/07/28 10:02:36;;;;;;;3.10;1.10;;;;;;;-145.18;100.00;47056.94;5012725;28;20100;-75
2022/07/28 10:05:03;;;;;;;4.83;1.00;;;;;;;-145.18;100.00;47058.91;5011819;28;20030;-75
2022/07/28 10:07:29;;;;;;;5.33;1.10;;;;;;;-145.18;100.00;47045.22;5012452;28;20037;-75
2022/07/28 10:10:07;;;;;;;7.80;1.37;;;;;;;-145.18;100.00;47049.13;5012330;28;20038;-76
2022/07/28 10:12:37;;;;;;;6.97;1.37;;;;;;;-145.18;100.00;47051.09;5012315;28;20509;-75
2022/07/28 10:18:02;;;;;;;2.77;1.10;;;;;;;-145.18;100.00;47029.59;4993027;28;20093;-75
2022/07/28 10:20:27;;;;;;;2.70;0.87;;;;;;;-145.18;100.00;47047.19;4992028;28;20034;-75
2022/07/28 10:23:01;;;;;;;5.63;0.93;;;;;;;-145.18;100.00;47051.09;4992573;28;20062;-75
2022/07/28 10:25:30;;;;;;;3.27;0.97;;;;;;;-145.18;100.00;47051.09;4991944;28;20446;-76
2022/07/28 10:27:58;;;;;;;4.03;1.30;;;;;;;-145.18;100.00;47039.34;4992895;28;20030;-76
2022/07/28 10:30:23;;;;;;;4.40;1.00;;;;;;;-145.18;100.00;47049.13;4974972;28;20038;-75
2022/07/28 10:32:51;;;;;;;2.03;0.90;;;;;;;-145.18;100.00;47033.50;4991800;28;20026;-75
2022/07/28 10:35:16;;;;;;;7.10;0.93;;;;;;;-145.18;100.00;47019.81;4974428;28;20058;-73
2022/07/28 10:37:58;;;;;;;5.90;1.20;;;;;;;-145.18;100.00;47023.72;4992405;28;20109;-75
2022/07/28 10:40:28;;;;;;;1.97;0.80;;;;;;;-145.18;100.00;47029.59;4992294;28;20030;-75
2022/07/28 10:42:55;;;;;;;3.33;1.27;;;;;;;-145.18;100.00;47012.00;4992042;28;20487;-75
2022/07/28 10:45:21;;;;;;;3.70;0.83;;;;;;;-145.18;100.00;47062.81;4991973;28;20082;-75
2022/07/28 10:47:47;;;;;;;6.33;1.43;;;;;;;-145.18;100.00;47047.19;4992590;28;20034;-73
2022/07/28 10:50:13;;;;;;;5.13;1.00;;;;;;;-145.18;100.00;47031.53;4974499;28;20039;-75
2022/07/28 10:52:40;;;;;;;6.27;1.10;;;;;;;-145.18;100.00;47025.69;5000917;28;20471;-75
2022/07/28 10:55:14;;;;;;;2.27;1.17;;;;;;;-145.18;100.00;47031.53;5011243;28;20043;-75
2022/07/28 10:57:48;;;;;;;2.37;0.97;;;;;;;-145.18;100.00;47004.19;5011850;28;20081;-75
2022/07/28 11:00:20;;;;;;;3.53;1.13;;;;;;;-145.18;100.00;47017.88;5011350;28;20026;-75
2022/07/28 11:02:55;;;;;;;6.53;1.10;;;;;;;-145.18;98.10;47000.28;5011158;28;20164;-75
2022/07/28 11:05:29;;;;;;;4.45;1.05;;;;;;;-145.18;100.00;46996.38;5011135;28;20022;-73
2022/07/28 11:07:57;;;;;;;2.97;0.80;;;;;;;-145.18;96.65;47000.28;5011834;28;20399;-76
2022/07/28 11:10:23;;;;;;;3.80;1.00;;;;;;;-145.18;100.00;47000.28;5010991;28;20026;-76
2022/07/28 11:12:54;;;;;;;4.03;1.00;;;;;;;-145.18;95.18;46982.72;5011342;28;20030;-73
2022/07/28 11:15:27;;;;;;;7.83;0.80;;;;;;;-145.18;90.54;46996.38;5007318;28;20034;-76
2022/07/28 11:18:12;;;;;;;4.97;1.20;;;;;;;-145.18;91.33;47008.09;4990997;28;20042;-76
2022/07/28 11:20:52;;;;;;;2.17;1.00;;;;;;;-145.18;90.49;46976.84;4991416;28;20030;-73
2022/07/28 11:23:39;;;;;;;2.30;0.70;;;;;;;-145.18;92.57;47002.25;4991319;28;20413;-76